Time;durP1;ratioP1;P1;durP2;ratioP2;P2;SDS_P1;SDS_P2;PMS_P1;PMS_P2;Temp;Humidity;BMP_temperature;BMP_pressure;BME280_temperature;BME280_humidity;BME280_pressure;Samples;Min_cycle;Max_cycle;Signal;HPM_P1;HPM_P2
2023/12/08 00:01:11;;;;;;;37.70;23.33;;;0.00;99.90;;;;;;5021011;28;20510;-82
2023/12/08 00:03:37;;;;;;;40.47;21.77;;;0.00;99.90;;;;;;5017521;28;20158;-82
2023/12/08 00:06:03;;;;;;;36.28;20.40;;;0.00;99.90;;;;;;5018549;28;20096;-83
2023/12/08 00:08:29;;;;;;;31.92;19.88;;;0.00;99.90;;;;;;5007175;28;20030;-82
2023/12/08 00:10:54;;;;;;;35.85;21.10;;;-0.10;99.90;;;;;;5023916;28;20111;-82
2023/12/08 00:13:20;;;;;;;35.67;20.48;;;-0.10;99.90;;;;;;5020041;28;20021;-83
2023/12/08 00:15:47;;;;;;;35.58;20.05;;;-0.10;99.90;;;;;;5021203;28;20386;-83
2023/12/08 00:18:12;;;;;;;40.33;21.25;;;-0.20;99.90;;;;;;5020939;28;20037;-82
2023/12/08 00:20:38;;;;;;;38.90;21.70;;;-0.20;99.90;;;;;;5013537;28;20033;-82
2023/12/08 00:23:04;;;;;;;37.20;21.38;;;-0.20;99.90;;;;;;5020743;28;20099;-83
2023/12/08 00:25:30;;;;;;;34.45;20.60;;;-0.30;99.90;;;;;;5017935;28;20118;-85
2023/12/08 00:27:55;;;;;;;34.83;20.10;;;-0.30;99.90;;;;;;5019378;28;20032;-82
2023/12/08 00:30:21;;;;;;;31.88;19.90;;;-0.40;99.90;;;;;;5020510;28;20160;-83
2023/12/08 00:32:47;;;;;;;35.85;19.48;;;-0.40;99.90;;;;;;5013482;28;20037;-84
2023/12/08 00:35:12;;;;;;;34.40;20.90;;;-0.40;99.90;;;;;;5017804;28;20108;-83
2023/12/08 00:37:38;;;;;;;36.08;20.25;;;-0.30;99.90;;;;;;5022995;28;20026;-83
2023/12/08 00:40:05;;;;;;;38.42;21.08;;;-0.50;99.90;;;;;;4999421;28;20537;-87
2023/12/08 00:42:31;;;;;;;38.85;20.80;;;-0.50;99.90;;;;;;5000949;28;20411;-83
2023/12/08 00:44:56;;;;;;;36.05;20.42;;;-0.50;99.90;;;;;;4994348;28;20040;-83
2023/12/08 00:47:25;;;;;;;36.03;19.35;;;-0.50;99.90;;;;;;4995983;28;20058;-89
2023/12/08 00:49:50;;;;;;;35.25;19.80;;;-0.50;99.90;;;;;;4991480;28;21250;-83
2023/12/08 00:52:16;;;;;;;35.67;20.38;;;-0.50;99.90;;;;;;5001503;28;20040;-83
2023/12/08 00:54:42;;;;;;;35.78;20.00;;;-0.60;99.90;;;;;;5003849;28;20056;-83
2023/12/08 00:57:08;;;;;;;36.55;21.10;;;-0.50;99.90;;;;;;4997156;28;20080;-83
2023/12/08 00:59:33;;;;;;;37.17;20.38;;;-0.60;99.90;;;;;;5002946;28;20467;-85
2023/12/08 01:01:59;;;;;;;41.30;21.38;;;-0.50;99.90;;;;;;5000288;28;20041;-83
2023/12/08 01:04:25;;;;;;;35.47;21.02;;;-0.60;99.90;;;;;;4998037;28;20441;-83
2023/12/08 01:06:50;;;;;;;33.88;19.42;;;-0.60;99.90;;;;;;4993647;28;20034;-84
2023/12/08 01:09:16;;;;;;;32.72;19.83;;;-0.60;99.90;;;;;;4997404;28;20088;-83
2023/12/08 01:11:43;;;;;;;27.98;17.35;;;-0.60;99.90;;;;;;5003148;28;20555;-87
2023/12/08 01:14:09;;;;;;;30.33;18.30;;;-0.60;99.90;;;;;;5001639;28;21395;-83
2023/12/08 01:16:41;;;;;;;35.65;21.10;;;-0.60;99.90;;;;;;4992032;28;20030;-85
2023/12/08 01:19:08;;;;;;;32.22;18.63;;;-0.60;99.90;;;;;;5001558;28;20109;-84
2023/12/08 01:21:37;;;;;;;32.45;20.15;;;-0.50;99.90;;;;;;5001732;28;20022;-89
2023/12/08 01:24:03;;;;;;;35.58;19.90;;;-0.60;99.90;;;;;;5003144;28;20029;-87
2023/12/08 01:26:29;;;;;;;33.72;19.95;;;-0.60;99.90;;;;;;5002228;28;20061;-83
2023/12/08 01:28:55;;;;;;;34.75;18.73;;;-0.60;99.90;;;;;;5000082;28;20712;-84
2023/12/08 01:31:21;;;;;;;36.47;19.45;;;-0.60;99.90;;;;;;4997023;28;20030;-84
2023/12/08 01:33:47;;;;;;;31.10;19.08;;;-0.60;99.90;;;;;;4996188;28;20021;-84
2023/12/08 01:36:18;;;;;;;34.00;19.58;;;-0.70;99.90;;;;;;5004812;28;20395;-89
2023/12/08 01:38:45;;;;;;;36.17;19.58;;;-0.70;99.90;;;;;;4999249;28;20018;-90
2023/12/08 01:41:18;;;;;;;30.75;17.98;;;-0.70;99.90;;;;;;5003990;28;20057;-85
2023/12/08 01:43:43;;;;;;;32.17;18.65;;;-0.70;99.90;;;;;;5022763;28;20049;-84
2023/12/08 01:46:12;;;;;;;32.03;18.23;;;-0.80;99.90;;;;;;5023403;28;20111;-83
2023/12/08 01:48:38;;;;;;;32.55;17.92;;;-0.80;99.90;;;;;;5012088;28;20045;-85
2023/12/08 01:51:05;;;;;;;28.25;17.77;;;-0.80;99.90;;;;;;5020935;28;20033;-90
2023/12/08 01:53:31;;;;;;;36.70;19.35;;;-0.70;99.90;;;;;;5019163;28;20042;-84
2023/12/08 01:55:57;;;;;;;31.60;18.85;;;-0.60;99.90;;;;;;4997194;28;20036;-84
2023/12/08 01:58:25;;;;;;;31.00;18.30;;;-0.60;99.90;;;;;;5014924;28;20111;-85
2023/12/08 02:00:51;;;;;;;31.92;18.90;;;-0.60;99.90;;;;;;5011343;28;20037;-84
2023/12/08 02:03:18;;;;;;;30.77;17.95;;;-0.60;99.90;;;;;;5016824;28;20032;-85
2023/12/08 02:05:50;;;;;;;27.23;16.92;;;-0.50;99.90;;;;;;5022161;28;20029;-85
2023/12/08 02:08:16;;;;;;;31.88;18.98;;;-0.50;99.90;;;;;;5027530;28;20033;-84
2023/12/08 02:10:42;;;;;;;32.47;18.40;;;-0.50;99.90;;;;;;5022698;28;20030;-84
2023/12/08 02:13:08;;;;;;;31.48;19.02;;;-0.40;99.90;;;;;;5022007;28;20112;-85
2023/12/08 02:15:34;;;;;;;29.05;18.13;;;-0.50;99.90;;;;;;5016072;28;20029;-85
2023/12/08 02:18:00;;;;;;;31.77;17.67;;;-0.40;99.90;;;;;;5023639;28;20120;-88
2023/12/08 02:20:26;;;;;;;35.85;18.50;;;-0.50;99.90;;;;;;5018153;28;20046;-84
2023/12/08 02:22:52;;;;;;;29.17;17.10;;;-0.50;99.90;;;;;;5023185;28;20025;-84
2023/12/08 02:25:18;;;;;;;28.63;17.90;;;-0.60;99.90;;;;;;5022274;28;20467;-87
2023/12/08 02:27:44;;;;;;;27.95;15.90;;;-0.60;99.90;;;;;;5023976;28;20033;-88
2023/12/08 02:30:10;;;;;;;27.88;15.88;;;-0.60;99.90;;;;;;5019375;28;20496;-84
2023/12/08 02:32:51;;;;;;;26.80;16.60;;;-0.60;99.90;;;;;;5025097;28;20041;-85
2023/12/08 02:35:19;;;;;;;30.73;16.38;;;-0.50;99.90;;;;;;5021475;28;20463;-90
2023/12/08 02:37:50;;;;;;;23.58;14.77;;;-0.40;99.90;;;;;;5019419;28;20112;-85
2023/12/08 02:40:16;;;;;;;25.15;15.13;;;-0.40;99.90;;;;;;5020489;28;20041;-84
2023/12/08 02:42:43;;;;;;;26.88;13.98;;;-0.40;99.90;;;;;;5021892;28;20411;-85
2023/12/08 02:45:09;;;;;;;26.92;15.38;;;-0.30;99.90;;;;;;5025463;28;20434;-84
2023/12/08 02:47:35;;;;;;;24.23;14.63;;;-0.30;99.90;;;;;;5019784;28;20107;-88
2023/12/08 02:50:00;;;;;;;23.73;14.88;;;-0.20;99.90;;;;;;5018747;28;20034;-84
2023/12/08 02:52:26;;;;;;;26.25;14.68;;;-0.20;99.90;;;;;;5016059;28;20026;-83
2023/12/08 02:54:52;;;;;;;23.48;14.27;;;-0.20;99.90;;;;;;5023802;28;20386;-84
2023/12/08 02:57:17;;;;;;;22.88;14.23;;;-0.10;99.90;;;;;;5021186;28;20029;-85
2023/12/08 02:59:44;;;;;;;20.25;11.98;;;-0.10;99.90;;;;;;4996872;28;20049;-88
2023/12/08 03:02:10;;;;;;;23.88;14.00;;;-0.10;99.90;;;;;;5019757;28;20060;-83
2023/12/08 03:04:35;;;;;;;20.98;12.10;;;-0.10;99.90;;;;;;5018698;28;20103;-83
2023/12/08 03:07:01;;;;;;;19.85;12.68;;;0.00;99.90;;;;;;5025800;28;20047;-83
2023/12/08 03:09:26;;;;;;;23.50;14.15;;;0.00;99.90;;;;;;5024204;28;20037;-83
2023/12/08 03:11:52;;;;;;;20.73;12.43;;;0.10;99.90;;;;;;5022857;28;20556;-84
2023/12/08 03:14:18;;;;;;;19.95;12.23;;;0.10;99.90;;;;;;5024373;28;20406;-85
2023/12/08 03:16:46;;;;;;;20.73;11.52;;;0.10;99.90;;;;;;5023901;28;20025;-83
2023/12/08 03:19:12;;;;;;;24.35;13.07;;;0.10;99.90;;;;;;5009621;28;20519;-83
2023/12/08 03:21:37;;;;;;;18.27;11.57;;;0.20;99.90;;;;;;5026454;28;20029;-83
2023/12/08 03:24:03;;;;;;;18.08;11.55;;;0.20;99.90;;;;;;5022903;28;20461;-85
2023/12/08 03:26:29;;;;;;;20.10;12.10;;;0.20;99.90;;;;;;5004615;28;20036;-83
2023/12/08 03:28:54;;;;;;;19.30;11.40;;;0.20;99.90;;;;;;5021690;28;20025;-83
2023/12/08 03:31:29;;;;;;;25.48;12.55;;;0.30;99.90;;;;;;5025322;28;20025;-84
2023/12/08 03:33:55;;;;;;;22.88;12.70;;;0.30;99.90;;;;;;5022488;28;20115;-83
2023/12/08 03:36:20;;;;;;;29.38;12.25;;;0.30;99.90;;;;;;5030746;28;20030;-83
2023/12/08 03:38:46;;;;;;;20.60;11.80;;;0.30;99.90;;;;;;5023527;28;20032;-84
2023/12/08 03:41:12;;;;;;;20.13;11.57;;;0.30;99.90;;;;;;5021830;28;20388;-83
2023/12/08 03:43:38;;;;;;;22.58;12.88;;;0.30;99.90;;;;;;5005782;28;20557;-83
2023/12/08 03:46:05;;;;;;;18.75;11.25;;;0.40;99.90;;;;;;4995847;28;20074;-84
2023/12/08 03:48:31;;;;;;;23.20;11.63;;;0.40;99.90;;;;;;5003401;28;20176;-84
2023/12/08 03:50:56;;;;;;;25.45;12.20;;;0.40;99.90;;;;;;4993505;28;20505;-83
2023/12/08 03:53:22;;;;;;;29.63;12.68;;;0.40;99.90;;;;;;4999856;28;20022;-83
2023/12/08 03:55:48;;;;;;;23.85;12.38;;;0.40;99.90;;;;;;4985506;28;20080;-86
2023/12/08 03:58:13;;;;;;;31.13;14.50;;;0.40;99.90;;;;;;4996091;28;20112;-83
2023/12/08 04:00:39;;;;;;;26.35;11.98;;;0.40;99.90;;;;;;5002731;28;20484;-86
2023/12/08 04:03:06;;;;;;;23.20;11.85;;;0.40;99.90;;;;;;4995181;28;20519;-85
2023/12/08 04:05:31;;;;;;;21.65;11.32;;;0.40;99.90;;;;;;4982912;28;20081;-83
2023/12/08 04:07:57;;;;;;;15.60;10.68;;;0.40;99.90;;;;;;4987223;28;20026;-83
2023/12/08 04:10:23;;;;;;;20.73;10.82;;;0.40;99.90;;;;;;4995561;28;20044;-84
2023/12/08 04:12:49;;;;;;;19.02;10.05;;;0.40;99.90;;;;;;5003758;28;20033;-84
2023/12/08 04:15:14;;;;;;;21.00;10.30;;;0.50;99.90;;;;;;4997384;28;20018;-83
2023/12/08 04:17:40;;;;;;;19.52;10.93;;;0.40;99.90;;;;;;5004138;28;20105;-83
2023/12/08 04:20:06;;;;;;;21.00;11.45;;;0.40;99.90;;;;;;5002915;28;20096;-84
2023/12/08 04:22:32;;;;;;;22.20;9.95;;;0.40;99.90;;;;;;5005726;28;20032;-83
2023/12/08 04:24:57;;;;;;;17.63;9.48;;;0.40;99.90;;;;;;5001182;28;20091;-83
2023/12/08 04:27:25;;;;;;;17.60;10.27;;;0.40;99.90;;;;;;4995809;28;20316;-83
2023/12/08 04:29:55;;;;;;;14.85;9.45;;;0.40;99.90;;;;;;5004374;28;20049;-85
2023/12/08 04:32:20;;;;;;;16.33;9.48;;;0.40;99.90;;;;;;5000708;28;20021;-85
2023/12/08 04:34:46;;;;;;;16.58;9.95;;;0.40;99.90;;;;;;5002574;28;20510;-84
2023/12/08 04:37:12;;;;;;;14.88;9.75;;;0.40;99.90;;;;;;5000801;28;20133;-84
2023/12/08 04:39:38;;;;;;;15.75;9.90;;;0.40;99.90;;;;;;4999271;28;20056;-84
2023/12/08 04:42:05;;;;;;;18.33;9.85;;;0.40;99.90;;;;;;4995527;28;20080;-88
2023/12/08 04:44:31;;;;;;;15.00;9.52;;;0.40;99.90;;;;;;5007952;28;20372;-84
2023/12/08 04:46:56;;;;;;;16.58;9.02;;;0.40;99.90;;;;;;4999743;28;20075;-83
2023/12/08 04:49:22;;;;;;;15.82;9.60;;;0.40;99.90;;;;;;5005157;28;20391;-85
2023/12/08 04:51:53;;;;;;;15.25;10.20;;;0.40;99.90;;;;;;4995438;28;20040;-90
2023/12/08 04:54:18;;;;;;;16.90;10.80;;;0.40;99.90;;;;;;4982516;28;20403;-84
2023/12/08 04:56:44;;;;;;;14.52;9.82;;;0.50;99.90;;;;;;5008423;28;20074;-84
2023/12/08 04:59:09;;;;;;;16.25;9.48;;;0.40;99.90;;;;;;5009782;28;20033;-83
2023/12/08 05:01:35;;;;;;;15.60;9.85;;;0.40;99.90;;;;;;5005601;28;20068;-85
2023/12/08 05:04:02;;;;;;;15.60;9.48;;;0.40;99.90;;;;;;5009361;28;20025;-82
2023/12/08 05:06:29;;;;;;;16.10;9.23;;;0.40;99.90;;;;;;5000035;28;21012;-89
2023/12/08 05:08:56;;;;;;;14.02;8.60;;;0.40;99.90;;;;;;4996050;28;20230;-84
2023/12/08 05:11:22;;;;;;;16.75;10.73;;;0.40;99.90;;;;;;4997769;28;20497;-84
2023/12/08 05:13:48;;;;;;;15.00;10.10;;;0.40;99.90;;;;;;4988185;28;20053;-85
2023/12/08 05:16:15;;;;;;;14.52;9.90;;;0.40;99.90;;;;;;5001043;28;20136;-83
2023/12/08 05:18:41;;;;;;;13.90;8.95;;;0.40;99.90;;;;;;5003644;28;20037;-84
2023/12/08 05:21:07;;;;;;;17.63;10.35;;;0.50;99.90;;;;;;4997076;28;20050;-83
2023/12/08 05:23:33;;;;;;;16.38;10.00;;;0.50;99.90;;;;;;5008379;28;20037;-86
2023/12/08 05:25:59;;;;;;;15.15;9.70;;;0.50;99.90;;;;;;5009088;28;20042;-83
2023/12/08 05:28:25;;;;;;;15.98;9.70;;;0.50;99.90;;;;;;4986063;28;20371;-85
2023/12/08 05:30:54;;;;;;;18.65;10.23;;;0.50;99.90;;;;;;4999861;28;20030;-86
2023/12/08 05:33:20;;;;;;;21.30;9.45;;;0.50;99.90;;;;;;5006320;28;20060;-87
2023/12/08 05:35:45;;;;;;;15.30;9.82;;;0.50;99.90;;;;;;4997560;28;20054;-84
2023/12/08 05:38:11;;;;;;;15.50;9.73;;;0.50;99.90;;;;;;5006454;28;20035;-84
2023/12/08 05:40:37;;;;;;;21.67;10.52;;;0.50;99.90;;;;;;5003377;28;20121;-83
2023/12/08 05:43:03;;;;;;;15.38;9.90;;;0.50;99.90;;;;;;5015237;28;20026;-83
2023/12/08 05:45:28;;;;;;;16.15;9.52;;;0.50;99.90;;;;;;5013261;28;20528;-84
2023/12/08 05:47:54;;;;;;;12.95;9.27;;;0.50;99.90;;;;;;5022346;28;20691;-82
2023/12/08 05:50:20;;;;;;;20.15;11.45;;;0.50;99.90;;;;;;5026925;28;20021;-83
2023/12/08 05:52:45;;;;;;;15.50;8.57;;;0.50;99.90;;;;;;5027193;28;20026;-81
2023/12/08 05:55:11;;;;;;;16.00;10.13;;;0.50;99.90;;;;;;5017614;28;20029;-81
2023/12/08 05:57:37;;;;;;;19.50;9.80;;;0.50;99.90;;;;;;5025670;28;20033;-81
2023/12/08 06:00:06;;;;;;;14.90;8.27;;;0.60;99.90;;;;;;5011399;28;20048;-82
2023/12/08 06:02:31;;;;;;;12.02;8.38;;;0.60;99.90;;;;;;5023716;28;20029;-82
2023/12/08 06:04:57;;;;;;;16.42;9.00;;;0.60;99.90;;;;;;5025766;28;20056;-81
2023/12/08 06:07:23;;;;;;;17.17;8.52;;;0.60;99.90;;;;;;5026606;28;20032;-81
2023/12/08 06:09:48;;;;;;;14.45;9.55;;;0.60;99.90;;;;;;5024401;28;20029;-82
2023/12/08 06:12:14;;;;;;;12.02;8.23;;;0.60;99.90;;;;;;5025034;28;20464;-82
2023/12/08 06:14:40;;;;;;;11.68;8.43;;;0.60;99.90;;;;;;5021568;28;20025;-81
2023/12/08 06:17:05;;;;;;;11.07;8.05;;;0.60;99.90;;;;;;5023470;28;20025;-83
2023/12/08 06:19:31;;;;;;;16.25;9.70;;;0.60;99.90;;;;;;5020342;28;20041;-81
2023/12/08 06:21:56;;;;;;;14.25;8.98;;;0.60;99.90;;;;;;5023661;28;20065;-84
2023/12/08 06:24:22;;;;;;;11.80;8.15;;;0.60;99.90;;;;;;5022667;28;20199;-81
2023/12/08 06:26:48;;;;;;;16.85;8.48;;;0.60;99.90;;;;;;5023730;28;20036;-83
2023/12/08 06:29:13;;;;;;;12.30;8.07;;;0.70;99.90;;;;;;5010265;28;20060;-81
2023/12/08 06:31:39;;;;;;;13.93;9.48;;;0.60;99.90;;;;;;5026607;28;20059;-82
2023/12/08 06:34:05;;;;;;;15.25;9.07;;;0.60;99.90;;;;;;5024874;28;20029;-83
2023/12/08 06:36:30;;;;;;;11.80;8.20;;;0.60;99.90;;;;;;5026406;28;20022;-82
2023/12/08 06:38:56;;;;;;;18.85;10.13;;;0.60;99.90;;;;;;5024188;28;20120;-82
2023/12/08 06:41:21;;;;;;;14.73;9.18;;;0.60;99.90;;;;;;5018523;28;20529;-82
2023/12/08 06:43:48;;;;;;;17.90;10.82;;;0.70;99.90;;;;;;5003895;28;20061;-81
2023/12/08 06:46:13;;;;;;;15.73;9.65;;;0.60;99.90;;;;;;5004595;28;20124;-81
2023/12/08 06:48:39;;;;;;;19.17;9.32;;;0.70;99.90;;;;;;4996699;28;20424;-81
2023/12/08 06:51:05;;;;;;;13.40;8.32;;;0.60;99.90;;;;;;5003370;28;20490;-85
2023/12/08 06:53:30;;;;;;;15.88;9.13;;;0.70;99.90;;;;;;5003321;28;20026;-83
2023/12/08 06:55:56;;;;;;;15.50;8.50;;;0.70;99.90;;;;;;5002823;28;20060;-82
2023/12/08 06:58:21;;;;;;;15.20;8.93;;;0.70;99.90;;;;;;4999712;28;20026;-81
2023/12/08 07:00:48;;;;;;;15.27;9.20;;;0.70;99.90;;;;;;4997246;28;20042;-82
2023/12/08 07:03:14;;;;;;;15.18;8.95;;;0.70;99.90;;;;;;4995133;28;20034;-81
2023/12/08 07:05:39;;;;;;;19.00;9.20;;;0.70;99.90;;;;;;5002103;28;20065;-86
2023/12/08 07:08:05;;;;;;;16.63;8.70;;;0.70;99.90;;;;;;4997335;28;20053;-83
2023/12/08 07:10:30;;;;;;;16.88;9.70;;;0.70;99.90;;;;;;5003511;28;20022;-82
2023/12/08 07:12:56;;;;;;;16.88;9.95;;;0.70;99.90;;;;;;4996686;28;20033;-81
2023/12/08 07:15:22;;;;;;;17.48;10.27;;;0.70;99.90;;;;;;4993521;28;20076;-82
2023/12/08 07:17:47;;;;;;;16.70;9.10;;;0.70;99.90;;;;;;4998451;28;20034;-82
2023/12/08 07:20:13;;;;;;;14.40;9.30;;;0.80;99.90;;;;;;5000544;28;20041;-81
2023/12/08 07:22:41;;;;;;;13.50;8.40;;;0.80;99.90;;;;;;5004336;28;20183;-88
2023/12/08 07:25:09;;;;;;;12.88;8.73;;;0.80;99.90;;;;;;4982954;28;20034;-84
2023/12/08 07:27:34;;;;;;;13.23;8.45;;;0.80;99.90;;;;;;5003706;28;20033;-83
2023/12/08 07:30:03;;;;;;;15.75;9.57;;;0.80;99.90;;;;;;4998998;28;20472;-81
2023/12/08 07:32:28;;;;;;;13.90;8.73;;;0.70;99.90;;;;;;5002078;28;20509;-81
2023/12/08 07:34:54;;;;;;;13.88;8.73;;;0.70;99.90;;;;;;5001868;28;20065;-82
2023/12/08 07:37:19;;;;;;;13.95;8.77;;;0.70;99.90;;;;;;4997108;28;20050;-84
2023/12/08 07:39:45;;;;;;;13.80;8.93;;;0.80;99.90;;;;;;4999987;28;20038;-84
2023/12/08 07:42:11;;;;;;;15.73;9.40;;;0.70;99.90;;;;;;5009693;28;20549;-81
2023/12/08 07:44:37;;;;;;;14.27;8.18;;;0.70;99.90;;;;;;5019053;28;20398;-81
2023/12/08 07:47:02;;;;;;;15.18;9.23;;;0.70;99.90;;;;;;5018376;28;20025;-81
2023/12/08 07:49:28;;;;;;;13.43;8.27;;;0.80;99.90;;;;;;5020465;28;20052;-82
2023/12/08 07:51:53;;;;;;;18.42;10.25;;;0.80;99.90;;;;;;5020618;28;20029;-81
2023/12/08 07:54:19;;;;;;;17.90;9.90;;;0.90;99.90;;;;;;5002752;28;20433;-81
2023/12/08 07:56:48;;;;;;;16.55;9.25;;;0.80;99.90;;;;;;5022920;28;20048;-85
2023/12/08 07:59:15;;;;;;;14.45;9.30;;;0.80;99.90;;;;;;5024108;28;20025;-82
2023/12/08 08:01:40;;;;;;;14.27;9.68;;;0.90;99.90;;;;;;5025281;28;20033;-81
2023/12/08 08:04:06;;;;;;;15.50;8.88;;;0.80;99.90;;;;;;4999477;28;20080;-82
2023/12/08 08:06:31;;;;;;;16.98;9.68;;;0.80;99.90;;;;;;5017016;28;20040;-81
2023/12/08 08:08:57;;;;;;;13.73;9.13;;;0.80;99.90;;;;;;5020049;28;20129;-82
2023/12/08 08:11:23;;;;;;;13.38;9.15;;;0.80;99.90;;;;;;5003095;28;20433;-81
2023/12/08 08:13:49;;;;;;;15.90;8.90;;;0.80;99.90;;;;;;5022301;28;20037;-87
2023/12/08 08:16:15;;;;;;;16.15;8.73;;;0.80;99.90;;;;;;5026567;28;20037;-81
2023/12/08 08:18:40;;;;;;;12.70;8.07;;;0.80;99.90;;;;;;5025322;28;20147;-82
2023/12/08 08:21:06;;;;;;;14.05;8.15;;;0.80;99.90;;;;;;5024315;28;20042;-81
2023/12/08 08:23:32;;;;;;;17.60;10.82;;;0.80;99.90;;;;;;5025609;28;20112;-81
2023/12/08 08:25:58;;;;;;;18.33;10.00;;;0.90;99.90;;;;;;5023880;28;20029;-81
2023/12/08 08:28:24;;;;;;;17.25;9.90;;;0.90;99.90;;;;;;5006224;28;20021;-81
2023/12/08 08:30:49;;;;;;;18.88;9.93;;;0.90;99.90;;;;;;5022963;28;20387;-81
2023/12/08 08:33:15;;;;;;;20.42;9.27;;;0.90;99.90;;;;;;5022164;28;20033;-83
2023/12/08 08:35:42;;;;;;;16.02;8.63;;;0.80;99.90;;;;;;5005282;28;20033;-81
2023/12/08 08:38:08;;;;;;;16.15;9.73;;;0.90;99.90;;;;;;5023213;28;20079;-82
2023/12/08 08:40:34;;;;;;;16.23;9.48;;;0.90;99.90;;;;;;5004834;28;20041;-87
2023/12/08 08:43:00;;;;;;;16.45;9.13;;;0.90;99.90;;;;;;5025621;28;20045;-81
2023/12/08 08:45:26;;;;;;;19.77;11.18;;;0.90;99.90;;;;;;5024978;28;20421;-81
2023/12/08 08:47:52;;;;;;;17.42;9.65;;;0.90;99.90;;;;;;5024474;28;20157;-81
2023/12/08 08:50:17;;;;;;;19.10;10.80;;;0.90;99.90;;;;;;5024800;28;20120;-81
2023/12/08 08:52:43;;;;;;;23.48;10.35;;;0.90;99.90;;;;;;5023947;28;20512;-81
2023/12/08 08:55:10;;;;;;;19.95;11.30;;;0.90;99.90;;;;;;5024610;28;20025;-81
2023/12/08 08:57:36;;;;;;;20.48;10.30;;;1.00;99.90;;;;;;5024856;28;20029;-81
2023/12/08 09:00:04;;;;;;;17.90;10.20;;;0.90;99.90;;;;;;5005996;28;20112;-81
2023/12/08 09:02:29;;;;;;;21.60;9.95;;;0.90;99.90;;;;;;5024487;28;20087;-81
2023/12/08 09:04:55;;;;;;;20.15;9.98;;;1.00;99.90;;;;;;5023335;28;20037;-81
2023/12/08 09:07:21;;;;;;;15.40;9.30;;;1.00;99.90;;;;;;5025411;28;20031;-82
2023/12/08 09:09:46;;;;;;;18.98;10.40;;;1.00;99.90;;;;;;5023829;28;20026;-81
2023/12/08 09:12:12;;;;;;;20.77;10.43;;;1.00;99.90;;;;;;5025192;28;20037;-81
2023/12/08 09:14:38;;;;;;;19.27;10.48;;;1.00;99.90;;;;;;5027042;28;20032;-81
2023/12/08 09:17:05;;;;;;;20.77;12.15;;;1.00;99.90;;;;;;5025652;28;20307;-85
2023/12/08 09:19:32;;;;;;;19.67;10.18;;;1.00;99.90;;;;;;5026903;28;20069;-81
2023/12/08 09:21:57;;;;;;;18.00;10.00;;;1.00;99.90;;;;;;5023405;28;20060;-83
2023/12/08 09:24:25;;;;;;;17.45;10.13;;;1.00;99.90;;;;;;5020341;28;20454;-81
2023/12/08 09:26:52;;;;;;;18.60;11.02;;;1.10;99.90;;;;;;5005196;28;20080;-81
2023/12/08 09:29:18;;;;;;;16.13;10.68;;;1.00;99.90;;;;;;5020857;28;20087;-84
2023/12/08 09:31:48;;;;;;;17.50;10.25;;;1.10;99.90;;;;;;5026341;28;20422;-81
2023/12/08 09:34:13;;;;;;;14.82;9.43;;;1.10;99.90;;;;;;5028648;28;20024;-80
2023/12/08 09:36:39;;;;;;;18.35;10.23;;;1.10;99.90;;;;;;5028923;28;20022;-81
2023/12/08 09:39:05;;;;;;;19.15;8.65;;;1.10;99.90;;;;;;5026938;28;20083;-85
2023/12/08 09:41:31;;;;;;;13.23;8.50;;;1.10;99.90;;;;;;5003136;28;20104;-81
2023/12/08 09:44:06;;;;;;;12.68;8.43;;;1.10;99.90;;;;;;5027127;28;20033;-81
2023/12/08 09:46:34;;;;;;;15.93;10.02;;;1.10;99.90;;;;;;5020284;28;20029;-82
2023/12/08 09:49:02;;;;;;;14.38;9.10;;;1.10;99.90;;;;;;5023762;28;20022;-81
2023/12/08 09:51:28;;;;;;;14.73;9.15;;;1.10;99.90;;;;;;5021201;28;20112;-81
2023/12/08 09:53:54;;;;;;;16.50;9.40;;;1.10;99.90;;;;;;5021408;28;20530;-81
2023/12/08 09:56:21;;;;;;;16.42;9.73;;;1.20;99.90;;;;;;5019963;28;20501;-81
2023/12/08 09:58:47;;;;;;;15.20;8.55;;;1.20;99.90;;;;;;5025615;28;20068;-81
2023/12/08 10:01:13;;;;;;;16.42;9.85;;;1.20;99.90;;;;;;5019405;28;20073;-83
2023/12/08 10:03:43;;;;;;;19.52;9.98;;;1.20;99.90;;;;;;5020725;28;20029;-82
2023/12/08 10:06:09;;;;;;;15.95;9.10;;;1.20;99.90;;;;;;5023375;28;20044;-82
2023/12/08 10:08:36;;;;;;;13.32;8.57;;;1.20;99.90;;;;;;5027168;28;20025;-82
2023/12/08 10:11:02;;;;;;;19.42;9.73;;;1.20;99.90;;;;;;5026039;28;20116;-81
2023/12/08 10:13:28;;;;;;;19.75;9.43;;;1.20;99.90;;;;;;5024940;28;20329;-81
2023/12/08 10:15:55;;;;;;;15.07;8.52;;;1.20;99.90;;;;;;5024841;28;20029;-81
2023/12/08 10:18:23;;;;;;;14.68;8.70;;;1.20;99.90;;;;;;5009795;28;20036;-81
2023/12/08 10:20:50;;;;;;;16.88;9.43;;;1.20;99.90;;;;;;5026182;28;20037;-87
2023/12/08 10:23:23;;;;;;;13.43;9.02;;;1.20;99.90;;;;;;5024219;28;20087;-81
2023/12/08 10:25:50;;;;;;;15.88;9.80;;;1.20;99.90;;;;;;5019566;28;20104;-82
2023/12/08 10:28:15;;;;;;;13.73;9.13;;;1.20;99.90;;;;;;5013382;28;20049;-80
2023/12/08 10:30:49;;;;;;;17.02;9.85;;;1.20;99.90;;;;;;5019819;28;20069;-82
2023/12/08 10:33:20;;;;;;;13.48;9.00;;;1.20;99.90;;;;;;5014102;28;20029;-82
2023/12/08 10:35:46;;;;;;;13.57;9.25;;;1.20;99.90;;;;;;5000588;28;20030;-82
2023/12/08 10:38:13;;;;;;;18.15;11.32;;;1.20;99.90;;;;;;5021877;28;20454;-81
2023/12/08 10:40:46;;;;;;;22.60;12.98;;;1.20;99.90;;;;;;5022498;28;20346;-80
2023/12/08 10:43:22;;;;;;;20.45;12.65;;;1.20;99.90;;;;;;5026823;28;20047;-81
2023/12/08 10:45:51;;;;;;;23.08;12.02;;;1.20;99.90;;;;;;5026523;28;20474;-82
2023/12/08 10:48:21;;;;;;;20.60;11.00;;;1.20;99.90;;;;;;5008689;28;20029;-82
2023/12/08 10:50:52;;;;;;;18.30;10.93;;;1.20;99.90;;;;;;5025083;28;20067;-81
2023/12/08 10:53:21;;;;;;;22.70;12.27;;;1.20;99.90;;;;;;5021698;28;20125;-81
2023/12/08 10:56:00;;;;;;;20.33;12.55;;;1.20;99.90;;;;;;5021480;28;20033;-81
2023/12/08 10:58:28;;;;;;;17.60;10.65;;;1.20;99.90;;;;;;5019394;28;20034;-81
2023/12/08 11:00:56;;;;;;;21.67;13.23;;;1.20;99.90;;;;;;5023871;28;20045;-87
2023/12/08 11:03:25;;;;;;;20.92;10.77;;;1.20;99.90;;;;;;5026911;28;20037;-82
2023/12/08 11:06:07;;;;;;;16.02;10.57;;;1.20;99.90;;;;;;5007697;28;20029;-85
2023/12/08 11:08:34;;;;;;;17.63;10.63;;;1.20;99.90;;;;;;5021551;28;20065;-81
2023/12/08 11:11:09;;;;;;;19.98;10.50;;;1.20;99.90;;;;;;5014446;28;20021;-85
2023/12/08 11:13:39;;;;;;;18.38;11.27;;;1.20;99.90;;;;;;5024290;28;20035;-85
2023/12/08 11:16:36;;;;;;;19.95;12.73;;;1.20;99.90;;;;;;5023152;28;20074;-82
2023/12/08 11:19:02;;;;;;;18.77;12.55;;;1.20;99.90;;;;;;5018842;28;20116;-81
2023/12/08 11:21:30;;;;;;;22.13;13.52;;;1.20;99.90;;;;;;5023998;28;20099;-81
2023/12/08 11:23:56;;;;;;;21.00;13.70;;;1.20;99.90;;;;;;5024292;28;20034;-81
2023/12/08 11:27:06;;;;;;;21.67;13.45;;;1.20;99.90;;;;;;5024026;28;20471;-82
2023/12/08 11:29:42;;;;;;;20.35;12.50;;;1.30;99.90;;;;;;4987119;28;20053;-81
2023/12/08 11:32:22;;;;;;;20.63;11.88;;;1.30;99.90;;;;;;5025450;28;20087;-81
2023/12/08 11:34:52;;;;;;;25.52;13.38;;;1.30;99.90;;;;;;5024778;28;20033;-85
2023/12/08 11:37:18;;;;;;;26.05;16.45;;;1.30;99.90;;;;;;4994696;28;20034;-81
2023/12/08 11:39:44;;;;;;;28.60;15.35;;;1.40;99.90;;;;;;5023098;28;20044;-81
2023/12/08 11:42:18;;;;;;;30.00;14.95;;;1.30;99.90;;;;;;5014068;28;20068;-81
2023/12/08 11:44:45;;;;;;;28.02;15.60;;;1.30;99.90;;;;;;4998925;28;20113;-83
2023/12/08 11:47:14;;;;;;;22.17;14.45;;;1.30;99.90;;;;;;4992008;28;20014;-80
2023/12/08 11:49:44;;;;;;;23.20;13.57;;;1.30;99.90;;;;;;5002779;28;20116;-81
2023/12/08 11:52:36;;;;;;;19.15;12.15;;;1.20;99.90;;;;;;4994343;28;20060;-82
2023/12/08 11:55:19;;;;;;;22.67;12.70;;;1.30;99.90;;;;;;4996664;28;20040;-81
2023/12/08 11:58:03;;;;;;;17.27;10.07;;;1.30;99.90;;;;;;4994679;28;20030;-85
2023/12/08 12:00:31;;;;;;;26.98;11.50;;;1.40;99.90;;;;;;4997600;28;20037;-81
2023/12/08 12:02:58;;;;;;;20.95;11.10;;;1.40;99.90;;;;;;4981835;28;20033;-81
2023/12/08 12:05:26;;;;;;;18.92;10.77;;;1.40;99.90;;;;;;4996041;28;20034;-80
2023/12/08 12:07:53;;;;;;;15.57;9.70;;;1.30;99.90;;;;;;4999287;28;20030;-82
2023/12/08 12:10:27;;;;;;;16.98;10.57;;;1.30;99.90;;;;;;4982682;28;20034;-80
2023/12/08 12:13:04;;;;;;;21.30;11.88;;;1.30;99.90;;;;;;4995742;28;20537;-80
2023/12/08 12:15:33;;;;;;;20.67;11.15;;;1.40;99.90;;;;;;4998565;28;20030;-79
2023/12/08 12:17:59;;;;;;;16.80;10.45;;;1.40;99.90;;;;;;4999764;28;20026;-81
2023/12/08 12:20:28;;;;;;;16.95;10.15;;;1.40;99.90;;;;;;5002484;28;20038;-80
2023/12/08 12:22:53;;;;;;;16.80;11.23;;;1.40;99.90;;;;;;4992144;28;20057;-80
2023/12/08 12:25:22;;;;;;;14.40;9.68;;;1.40;99.90;;;;;;5002606;28;20026;-85
2023/12/08 12:27:48;;;;;;;13.80;9.27;;;1.40;99.90;;;;;;4992619;28;20033;-82
2023/12/08 12:30:16;;;;;;;19.33;11.80;;;1.40;99.90;;;;;;4975027;28;20033;-81
2023/12/08 12:32:44;;;;;;;22.27;11.65;;;1.40;99.90;;;;;;4977186;28;20395;-81
2023/12/08 12:35:10;;;;;;;22.52;13.90;;;1.50;99.90;;;;;;4978719;28;20013;-80
2023/12/08 12:37:36;;;;;;;26.80;14.60;;;1.50;99.90;;;;;;5002628;28;20021;-80